Weather Center

VHHH METAR :
VHHH 210000Z 08006KT 9999 FEW011 SCT028 27/24 Q1008 NOSIG

VHHH TAF :
VHHH 202300Z 2100/2206 12010KT 8000 FEW015 SCT025 TX29/2106Z TX30/2206Z
TN23/2122Z
TEMPO 2101/2105 20010KT 4000 SHRA FEW010CB SCT020
TEMPO 2105/2111 VRB20G35KT 2000 TSRA +SHRA FEW010 SCT020CB BKN040
TEMPO 2118/2206 20010KT

VMMC METAR :
VMMCH

VMMC TAF :
VMMC 202302Z 2100/2206 18012KT 8000 FEW010 SCT025
TEMPO 2100/2110 12008KT 4000 SHRA FEW008CB SCT015

Comments are closed